Terminal Aerodrome Forecast
Issued by NWS Newport/Morehead City, NC

Home | Current Version | Previous Version | Text Only | Print | Product List | Glossary Off
Versions: 1 2 3 4 5 6 7 8 9 10 11 12

885
FTUS42 KMHX 211740
TAFEWN
TAF
KEWN 211740Z 2118/2218 VRB05KT P6SM SCT050
     FM220500 00000KT P6SM SKC
     FM220900 00000KT 6SM BR SKC
     FM221600 VRB04KT P6SM SCT050=

USA.gov is the U.S. government's official web portal to all federal, state and local government web resources and services.